createdAt,value
2023-01-26T00:01:10.465Z,26.93
2023-01-26T00:03:37.966Z,27.50
2023-01-26T00:06:06.257Z,24.30
2023-01-26T00:08:37.882Z,27.57
2023-01-26T00:11:08.929Z,27.47
2023-01-26T00:13:36.928Z,30.77
2023-01-26T00:16:04.738Z,29.93
2023-01-26T00:18:32.289Z,27.97
2023-01-26T00:21:00.961Z,28.73
2023-01-26T00:23:29.583Z,28.07
2023-01-26T00:25:57.247Z,26.63
2023-01-26T00:28:24.860Z,33.57
2023-01-26T00:30:52.371Z,28.50
2023-01-26T00:33:19.825Z,26.97
2023-01-26T00:35:54.734Z,29.00
2023-01-26T00:38:22.193Z,31.13
2023-01-26T00:40:49.685Z,31.07
2023-01-26T00:43:17.152Z,31.03
2023-01-26T00:45:44.820Z,30.20
2023-01-26T00:48:12.314Z,28.30
2023-01-26T00:50:39.859Z,29.43
2023-01-26T00:53:07.327Z,31.73
2023-01-26T00:55:34.855Z,31.67
2023-01-26T00:58:02.870Z,30.07
2023-01-26T01:00:31.037Z,29.03
2023-01-26T01:02:58.801Z,27.90
2023-01-26T01:05:27.478Z,32.27
2023-01-26T01:07:55.362Z,30.23
2023-01-26T01:10:23.290Z,29.17
2023-01-26T01:12:50.994Z,28.20
2023-01-26T01:15:18.476Z,36.20
2023-01-26T01:17:46.403Z,28.40
2023-01-26T01:20:14.107Z,32.23
2023-01-26T01:22:42.689Z,29.03
2023-01-26T01:25:10.535Z,29.37
2023-01-26T01:27:38.181Z,26.90
2023-01-26T01:30:08.387Z,29.23
2023-01-26T01:32:36.883Z,30.47
2023-01-26T01:35:04.584Z,29.87
2023-01-26T01:37:33.660Z,29.40
2023-01-26T01:40:01.114Z,31.77
2023-01-26T01:42:28.943Z,32.43
2023-01-26T01:45:14.949Z,31.07
2023-01-26T01:47:42.697Z,31.47
2023-01-26T01:50:16.153Z,32.13
2023-01-26T01:52:43.693Z,30.60
2023-01-26T01:55:13.367Z,29.17
2023-01-26T01:57:45.901Z,31.97
2023-01-26T02:00:21.087Z,29.23
2023-01-26T02:03:11.119Z,30.10
2023-01-26T02:05:42.786Z,31.83
2023-01-26T02:08:10.812Z,32.20
2023-01-26T02:10:38.615Z,27.93
2023-01-26T02:13:06.808Z,32.20
2023-01-26T02:15:34.263Z,29.00
2023-01-26T02:18:04.396Z,29.80
2023-01-26T02:20:51.641Z,31.43
2023-01-26T02:23:27.601Z,34.17
2023-01-26T02:25:57.308Z,31.43
2023-01-26T02:28:28.708Z,28.17
2023-01-26T02:30:56.921Z,29.33
2023-01-26T02:33:26.434Z,27.83
2023-01-26T02:35:57.501Z,27.23
2023-01-26T02:38:27.520Z,27.07
2023-01-26T02:41:07.014Z,27.83
2023-01-26T02:43:35.108Z,28.50
2023-01-26T02:46:04.616Z,31.20
2023-01-26T02:48:54.568Z,30.80
2023-01-26T02:51:23.620Z,31.53
2023-01-26T02:53:51.191Z,29.33
2023-01-26T02:56:18.600Z,29.40
2023-01-26T02:58:46.144Z,30.10
2023-01-26T03:01:13.905Z,26.83
2023-01-26T03:03:47.474Z,28.63
2023-01-26T03:06:16.077Z,28.10
2023-01-26T03:08:43.650Z,25.83
2023-01-26T03:11:11.162Z,29.20
2023-01-26T03:13:38.615Z,29.63
2023-01-26T03:16:10.468Z,31.90
2023-01-26T03:18:56.767Z,28.60
2023-01-26T03:21:42.824Z,27.53
2023-01-26T03:24:32.318Z,28.57
2023-01-26T03:27:20.314Z,29.50
2023-01-26T03:29:47.884Z,26.83
2023-01-26T03:32:15.437Z,26.63
2023-01-26T03:34:43.431Z,28.33
2023-01-26T03:37:11.428Z,30.17
2023-01-26T03:40:06.116Z,25.63
2023-01-26T03:42:53.917Z,30.23
2023-01-26T03:45:40.683Z,27.57
2023-01-26T03:48:28.270Z,30.43
2023-01-26T03:51:14.603Z,26.73
2023-01-26T03:54:01.469Z,21.30
2023-01-26T03:56:32.774Z,26.37
2023-01-26T03:59:09.905Z,23.10
2023-01-26T04:01:41.867Z,25.47
2023-01-26T04:04:28.361Z,27.77
2023-01-26T04:07:14.931Z,22.83
2023-01-26T04:09:47.165Z,23.83
2023-01-26T04:12:14.642Z,26.77
2023-01-26T04:15:16.287Z,25.40
2023-01-26T04:18:02.304Z,23.30
2023-01-26T04:20:48.266Z,25.23
2023-01-26T04:23:21.968Z,25.17
2023-01-26T04:25:51.535Z,23.10
2023-01-26T04:28:19.160Z,24.60
2023-01-26T04:30:48.208Z,25.03
2023-01-26T04:33:15.652Z,26.50
2023-01-26T04:35:43.240Z,23.87
2023-01-26T04:38:11.024Z,24.93
2023-01-26T04:40:41.154Z,28.70
2023-01-26T04:43:09.270Z,24.60
2023-01-26T04:45:37.547Z,23.27
2023-01-26T04:48:05.202Z,26.00
2023-01-26T04:50:32.915Z,24.40
2023-01-26T04:53:00.473Z,33.83
2023-01-26T05:06:14.477Z,23.57
2023-01-26T05:08:45.005Z,26.70
2023-01-26T05:11:13.008Z,25.77
2023-01-26T05:14:03.257Z,25.27
2023-01-26T05:16:56.738Z,28.83
2023-01-26T05:19:41.730Z,22.23
2023-01-26T05:22:18.120Z,23.37
2023-01-26T05:25:09.098Z,21.17
2023-01-26T05:27:56.199Z,24.50
2023-01-26T05:30:25.010Z,24.97
2023-01-26T05:32:52.783Z,21.93
2023-01-26T05:35:21.849Z,24.47
2023-01-26T05:37:49.360Z,25.60
2023-01-26T05:40:17.253Z,27.33
2023-01-26T05:42:46.478Z,21.33
2023-01-26T05:45:24.460Z,22.97
2023-01-26T05:47:55.438Z,29.23
2023-01-26T05:50:23.435Z,24.23
2023-01-26T05:53:10.949Z,22.43
2023-01-26T05:55:39.393Z,23.30
2023-01-26T05:58:07.319Z,25.33
2023-01-26T06:00:34.879Z,24.40
2023-01-26T06:03:08.819Z,22.53
2023-01-26T06:05:36.576Z,21.30
2023-01-26T06:08:11.500Z,23.17
2023-01-26T06:11:13.921Z,23.53
2023-01-26T06:13:50.338Z,24.00
2023-01-26T06:16:22.801Z,25.17
2023-01-26T06:18:51.079Z,19.90
2023-01-26T06:21:19.107Z,25.07
2023-01-26T06:23:46.921Z,20.43
2023-01-26T06:26:15.793Z,21.03
2023-01-26T06:28:43.991Z,23.27
2023-01-26T06:31:12.019Z,20.27
2023-01-26T06:33:40.774Z,20.60
2023-01-26T06:36:10.669Z,20.13
2023-01-26T06:38:39.223Z,21.63
2023-01-26T06:41:08.743Z,22.17
2023-01-26T06:43:36.835Z,22.83
2023-01-26T06:46:05.638Z,20.17
2023-01-26T06:48:35.350Z,21.53
2023-01-26T06:51:16.695Z,22.00
2023-01-26T06:53:49.108Z,21.47
2023-01-26T06:56:35.677Z,19.57
2023-01-26T06:59:22.324Z,24.17
2023-01-26T07:02:19.800Z,20.30
2023-01-26T07:04:48.008Z,22.07
2023-01-26T07:07:15.801Z,19.83
2023-01-26T07:09:43.673Z,18.33
2023-01-26T07:12:11.373Z,22.63
2023-01-26T07:14:39.111Z,19.10
2023-01-26T07:17:06.820Z,18.13
2023-01-26T07:19:34.494Z,23.10
2023-01-26T07:22:02.639Z,22.73
2023-01-26T07:24:30.646Z,21.27
2023-01-26T07:26:59.090Z,22.33
2023-01-26T07:29:26.739Z,23.80
2023-01-26T07:31:54.474Z,22.17
2023-01-26T07:34:22.330Z,20.23
2023-01-26T07:36:52.802Z,19.43
2023-01-26T07:39:20.532Z,17.40
2023-01-26T07:41:48.242Z,21.33
2023-01-26T07:44:34.443Z,18.20
2023-01-26T07:47:02.229Z,21.00
2023-01-26T07:49:31.170Z,24.57
2023-01-26T07:51:58.875Z,18.70
2023-01-26T07:54:26.623Z,20.87
2023-01-26T07:56:54.936Z,19.47
2023-01-26T07:59:23.110Z,20.00
2023-01-26T08:01:51.247Z,19.67
2023-01-26T08:04:19.314Z,19.17
2023-01-26T08:06:47.106Z,17.57
2023-01-26T08:09:15.010Z,21.60
2023-01-26T08:11:42.741Z,20.97
2023-01-26T08:14:10.781Z,19.83
2023-01-26T08:16:38.521Z,19.13
2023-01-26T08:19:06.293Z,20.10
2023-01-26T08:21:33.948Z,19.07
2023-01-26T08:24:03.651Z,18.43
2023-01-26T08:26:31.428Z,16.47
2023-01-26T08:28:59.261Z,19.27
2023-01-26T08:31:28.459Z,18.90
2023-01-26T08:33:56.440Z,20.03
2023-01-26T08:36:24.141Z,17.27
2023-01-26T08:38:52.536Z,17.03
2023-01-26T08:41:20.194Z,17.87
2023-01-26T08:43:48.122Z,17.63
2023-01-26T08:46:16.220Z,17.03
2023-01-26T08:48:44.027Z,20.27
2023-01-26T08:51:12.052Z,17.50
2023-01-26T08:53:39.755Z,19.47
2023-01-26T08:56:08.294Z,17.90
2023-01-26T08:58:36.549Z,17.70
2023-01-26T09:01:08.174Z,17.43
2023-01-26T09:03:36.355Z,17.17
2023-01-26T09:06:05.427Z,18.80
2023-01-26T09:08:33.549Z,19.40
2023-01-26T09:11:01.361Z,16.37
2023-01-26T09:13:29.037Z,20.27
2023-01-26T09:15:57.322Z,16.70
2023-01-26T09:18:25.006Z,19.60
2023-01-26T09:20:52.747Z,16.67
2023-01-26T09:23:20.887Z,17.27
2023-01-26T09:25:53.915Z,17.70
2023-01-26T09:28:21.651Z,15.47
2023-01-26T09:30:49.420Z,15.20
2023-01-26T09:33:17.229Z,16.60
2023-01-26T09:35:44.987Z,17.17
2023-01-26T09:38:12.834Z,16.47
2023-01-26T09:40:55.749Z,15.23
2023-01-26T09:43:34.303Z,14.03
2023-01-26T09:46:05.995Z,14.60
2023-01-26T09:48:33.713Z,17.00
2023-01-26T09:51:04.570Z,14.07
2023-01-26T09:53:38.140Z,16.73
2023-01-26T09:56:06.262Z,15.27
2023-01-26T09:58:39.861Z,13.83
2023-01-26T10:01:15.632Z,16.53
2023-01-26T10:03:52.534Z,13.83
2023-01-26T10:06:22.822Z,15.10
2023-01-26T10:09:18.059Z,14.70
2023-01-26T10:11:47.684Z,13.57
2023-01-26T10:14:33.853Z,14.40
2023-01-26T10:17:02.206Z,14.93
2023-01-26T10:19:42.059Z,14.57
2023-01-26T10:22:14.617Z,13.50
2023-01-26T10:24:43.033Z,14.90
2023-01-26T10:27:14.282Z,15.63
2023-01-26T10:29:42.050Z,14.00
2023-01-26T10:32:14.652Z,14.47
2023-01-26T10:34:42.724Z,13.40
2023-01-26T10:37:19.726Z,13.80
2023-01-26T10:40:01.583Z,14.97
2023-01-26T10:42:30.920Z,13.73
2023-01-26T10:45:00.378Z,14.07
2023-01-26T10:47:28.167Z,14.10
2023-01-26T10:50:34.298Z,12.77
2023-01-26T10:53:03.440Z,12.60
2023-01-26T10:55:32.287Z,12.73
2023-01-26T10:58:00.449Z,13.00
2023-01-26T11:00:34.903Z,14.17
2023-01-26T11:03:06.470Z,16.13
2023-01-26T11:05:34.570Z,12.97
2023-01-26T11:08:03.866Z,14.87
2023-01-26T11:10:33.317Z,12.30
2023-01-26T11:13:14.689Z,11.47
2023-01-26T11:15:43.072Z,12.13
2023-01-26T11:18:17.194Z,13.03
2023-01-26T11:20:54.024Z,12.67
2023-01-26T11:23:33.721Z,12.57
2023-01-26T11:26:07.021Z,11.80
2023-01-26T11:28:37.537Z,13.07
2023-01-26T11:31:11.281Z,13.67
2023-01-26T11:33:39.091Z,13.10
2023-01-26T11:36:25.462Z,11.63
2023-01-26T11:39:15.040Z,10.90
2023-01-26T11:41:51.716Z,11.30
2023-01-26T11:44:42.461Z,13.80
2023-01-26T11:47:10.194Z,12.13
2023-01-26T11:49:56.477Z,13.07
2023-01-26T11:52:24.253Z,12.87
2023-01-26T11:55:20.974Z,12.10
2023-01-26T11:57:48.983Z,11.67
2023-01-26T12:00:29.573Z,11.40
2023-01-26T12:03:13.552Z,11.50
2023-01-26T12:05:44.283Z,12.63
2023-01-26T12:08:24.197Z,11.97
2023-01-26T12:10:54.938Z,10.70
2023-01-26T12:13:31.575Z,12.83
2023-01-26T12:16:02.813Z,13.77
2023-01-26T12:18:48.816Z,12.50
2023-01-26T12:21:21.397Z,12.33
2023-01-26T12:24:02.681Z,11.47
2023-01-26T12:26:33.885Z,11.53
2023-01-26T12:29:20.054Z,13.80
2023-01-26T12:31:50.529Z,11.33
2023-01-26T12:34:18.960Z,11.50
2023-01-26T12:36:46.677Z,11.60
2023-01-26T12:39:14.466Z,12.40
2023-01-26T12:41:47.952Z,11.87
2023-01-26T12:44:34.320Z,12.73
2023-01-26T12:47:14.397Z,12.37
2023-01-26T12:49:42.199Z,13.60
2023-01-26T12:52:16.531Z,14.80
2023-01-26T12:54:55.067Z,14.07
2023-01-26T12:57:24.500Z,11.53
2023-01-26T12:59:52.395Z,11.67
2023-01-26T13:02:31.121Z,13.40
2023-01-26T13:04:59.877Z,12.30
2023-01-26T13:07:40.389Z,13.93
2023-01-26T13:10:08.551Z,12.83
2023-01-26T13:12:54.539Z,14.33
2023-01-26T13:15:23.664Z,14.10
2023-01-26T13:17:59.066Z,14.10
2023-01-26T13:20:42.508Z,12.80
2023-01-26T13:23:28.819Z,12.57
2023-01-26T13:26:18.113Z,13.77
2023-01-26T13:28:47.403Z,13.13
2023-01-26T13:31:29.555Z,12.57
2023-01-26T13:33:59.858Z,13.23
2023-01-26T13:36:28.725Z,13.87
2023-01-26T13:39:00.858Z,14.83
2023-01-26T13:41:28.563Z,16.80
2023-01-26T13:43:56.195Z,17.20
2023-01-26T13:46:35.082Z,16.47
2023-01-26T13:49:02.920Z,14.80
2023-01-26T13:51:32.942Z,14.50
2023-01-26T13:54:05.375Z,15.13
2023-01-26T13:56:34.512Z,13.10
2023-01-26T13:59:13.017Z,17.23
2023-01-26T14:01:46.887Z,15.63
2023-01-26T14:04:24.958Z,14.30
2023-01-26T14:06:56.573Z,16.87
2023-01-26T14:09:24.492Z,14.53
2023-01-26T14:12:00.620Z,13.00
2023-01-26T14:14:30.619Z,15.73
2023-01-26T14:16:59.013Z,16.40
2023-01-26T14:19:27.068Z,14.40
2023-01-26T14:22:05.367Z,15.73
2023-01-26T14:24:34.934Z,16.60
2023-01-26T14:27:03.919Z,15.40
2023-01-26T14:29:33.012Z,16.70
2023-01-26T14:32:01.077Z,16.53
2023-01-26T14:34:30.382Z,16.57
2023-01-26T14:37:18.299Z,14.30
2023-01-26T14:39:48.222Z,17.53
2023-01-26T14:42:20.534Z,17.23
2023-01-26T14:44:48.444Z,18.17
2023-01-26T14:47:21.998Z,15.23
2023-01-26T14:49:55.737Z,15.63
2023-01-26T14:52:40.410Z,15.97
2023-01-26T14:55:28.576Z,14.90
2023-01-26T14:57:56.963Z,14.67
2023-01-26T15:00:29.578Z,16.30
2023-01-26T15:02:58.608Z,16.87
2023-01-26T15:05:36.828Z,16.20
2023-01-26T15:08:06.359Z,17.80
2023-01-26T15:10:44.413Z,16.57
2023-01-26T15:13:12.121Z,15.63
2023-01-26T15:15:41.008Z,13.77
2023-01-26T15:18:14.889Z,16.70
2023-01-26T15:20:44.106Z,15.47
2023-01-26T15:23:32.508Z,16.33
2023-01-26T15:26:13.604Z,16.77
2023-01-26T15:28:42.569Z,15.43
2023-01-26T15:31:19.725Z,14.80
2023-01-26T15:33:52.445Z,18.40
2023-01-26T15:36:32.626Z,16.70
2023-01-26T15:39:08.608Z,15.07
2023-01-26T15:41:36.255Z,16.20
2023-01-26T15:44:04.110Z,18.00
2023-01-26T15:46:31.980Z,17.47
2023-01-26T15:48:59.782Z,22.07
2023-01-26T15:51:27.454Z,17.80
2023-01-26T15:53:55.185Z,18.47
2023-01-26T15:56:23.006Z,18.17
2023-01-26T15:58:50.659Z,17.77
2023-01-26T16:01:21.467Z,17.83
2023-01-26T16:03:49.660Z,16.87
2023-01-26T16:06:22.060Z,14.60
2023-01-26T16:08:50.019Z,18.57
2023-01-26T16:11:18.119Z,18.17
2023-01-26T16:13:54.017Z,18.17
2023-01-26T16:16:30.108Z,18.43
2023-01-26T16:18:58.047Z,16.93
2023-01-26T16:21:27.077Z,16.57
2023-01-26T16:23:55.791Z,16.70
2023-01-26T16:26:23.676Z,15.07
2023-01-26T16:28:51.379Z,17.43
2023-01-26T16:31:23.903Z,16.07
2023-01-26T16:33:52.180Z,15.77
2023-01-26T16:36:20.548Z,16.00
2023-01-26T16:38:48.628Z,14.57
2023-01-26T16:41:19.273Z,17.37
2023-01-26T16:47:21.916Z,16.67
2023-01-26T16:49:49.403Z,18.27
2023-01-26T16:52:17.046Z,20.50
2023-01-26T16:54:45.724Z,17.50
2023-01-26T16:57:13.173Z,19.97
2023-01-26T16:59:40.715Z,19.47
2023-01-26T17:02:22.501Z,17.20
2023-01-26T17:04:50.027Z,18.40
2023-01-26T17:07:17.540Z,16.97
2023-01-26T17:09:45.309Z,17.80
2023-01-26T17:12:12.884Z,18.53
2023-01-26T17:14:40.481Z,19.33
2023-01-26T17:17:08.085Z,17.87
2023-01-26T17:19:35.576Z,20.23
2023-01-26T17:22:03.622Z,18.63
2023-01-26T17:24:31.144Z,19.20
2023-01-26T17:26:58.673Z,17.87
2023-01-26T17:29:26.280Z,18.40
2023-01-26T17:31:53.761Z,18.23
2023-01-26T17:34:22.351Z,18.43
2023-01-26T17:36:49.813Z,17.27
2023-01-26T17:39:18.900Z,18.60
2023-01-26T17:41:46.431Z,18.30
2023-01-26T17:44:15.271Z,17.77
2023-01-26T17:46:43.072Z,16.10
2023-01-26T17:49:10.578Z,16.73
2023-01-26T17:51:38.053Z,19.53
2023-01-26T17:54:05.912Z,18.33
2023-01-26T17:56:33.444Z,21.43
2023-01-26T17:59:01.006Z,16.83
2023-01-26T18:01:28.729Z,18.57
2023-01-26T18:03:56.383Z,20.13
2023-01-26T18:06:23.980Z,19.77
2023-01-26T18:08:51.503Z,18.87
2023-01-26T18:11:18.952Z,18.07
2023-01-26T18:13:46.776Z,19.57
2023-01-26T18:16:18.566Z,17.83
2023-01-26T18:18:46.133Z,21.43
2023-01-26T18:21:15.594Z,20.50
2023-01-26T18:23:53.819Z,18.97
2023-01-26T18:26:23.395Z,19.60
2023-01-26T18:28:50.965Z,18.07
2023-01-26T18:31:20.178Z,18.87
2023-01-26T18:33:47.809Z,20.40
2023-01-26T18:36:16.576Z,21.27
2023-01-26T18:38:44.915Z,19.70
2023-01-26T18:41:12.969Z,22.53
2023-01-26T18:43:41.052Z,21.20
2023-01-26T18:56:07.986Z,18.37
2023-01-26T18:58:35.835Z,20.87
2023-01-26T19:01:09.583Z,20.70
2023-01-26T19:03:37.900Z,21.53
2023-01-26T19:06:05.937Z,20.83
2023-01-26T19:08:34.565Z,25.70
2023-01-26T19:11:10.833Z,23.27
2023-01-26T19:13:42.101Z,19.17
2023-01-26T19:16:09.907Z,21.80
2023-01-26T19:18:37.417Z,23.90
2023-01-26T19:21:05.468Z,27.53
2023-01-26T19:23:34.092Z,22.17
2023-01-26T19:26:01.597Z,22.37
2023-01-26T19:28:29.067Z,24.23
2023-01-26T19:31:03.467Z,21.17
2023-01-26T19:33:31.838Z,21.80
2023-01-26T19:36:00.321Z,20.23
2023-01-26T19:38:27.767Z,21.37
2023-01-26T19:40:55.344Z,24.33
2023-01-26T19:43:23.910Z,21.33
2023-01-26T19:45:55.334Z,24.40
2023-01-26T19:48:24.183Z,20.67
2023-01-26T19:51:17.906Z,21.80
2023-01-26T19:53:46.607Z,23.57
2023-01-26T19:56:21.212Z,20.97
2023-01-26T19:58:56.050Z,25.57
2023-01-26T20:01:25.818Z,22.70
2023-01-26T20:04:03.235Z,22.43
2023-01-26T20:06:31.736Z,22.23
2023-01-26T20:08:59.826Z,22.23
2023-01-26T20:11:29.506Z,25.70
2023-01-26T20:13:57.841Z,22.87
2023-01-26T20:16:28.188Z,22.97
2023-01-26T20:18:56.309Z,23.63
2023-01-26T20:21:23.784Z,26.17
2023-01-26T20:23:54.711Z,26.10
2023-01-26T20:26:23.596Z,23.30
2023-01-26T20:28:52.324Z,22.53
2023-01-26T20:31:21.603Z,24.23
2023-01-26T20:33:50.098Z,22.73
2023-01-26T20:36:19.376Z,25.17
2023-01-26T20:38:47.465Z,24.63
2023-01-26T20:41:15.953Z,23.27
2023-01-26T20:43:57.355Z,23.10
2023-01-26T20:46:27.056Z,23.90
2023-01-26T20:48:57.932Z,26.20
2023-01-26T20:51:29.227Z,26.63
2023-01-26T20:53:57.747Z,31.53
2023-01-26T20:56:25.315Z,25.10
2023-01-26T20:58:53.482Z,26.63
2023-01-26T21:01:21.252Z,23.10
2023-01-26T21:03:49.125Z,24.50
2023-01-26T21:06:20.817Z,23.83
2023-01-26T21:08:53.357Z,25.67
2023-01-26T21:11:21.443Z,23.93
2023-01-26T21:13:49.377Z,27.50
2023-01-26T21:16:17.691Z,27.57
2023-01-26T21:18:46.199Z,24.90
2023-01-26T21:21:17.702Z,25.17
2023-01-26T21:23:46.128Z,27.83
2023-01-26T21:26:18.727Z,30.00
2023-01-26T21:28:50.369Z,24.27
2023-01-26T21:31:18.030Z,22.87
2023-01-26T21:33:47.943Z,24.33
2023-01-26T21:36:16.899Z,23.43
2023-01-26T21:38:45.404Z,27.03
2023-01-26T21:41:35.804Z,26.77
2023-01-26T21:44:06.009Z,25.37
2023-01-26T21:46:33.685Z,28.30
2023-01-26T21:49:01.419Z,24.50
2023-01-26T21:51:47.428Z,24.03
2023-01-26T21:54:15.476Z,20.77
2023-01-26T21:56:42.927Z,28.00
2023-01-26T21:59:14.534Z,24.40
2023-01-26T22:01:50.053Z,19.40
2023-01-26T22:04:18.765Z,23.40
2023-01-26T22:06:46.394Z,24.67
2023-01-26T22:09:14.724Z,25.70
2023-01-26T22:11:42.355Z,23.27
2023-01-26T22:14:13.855Z,25.40
2023-01-26T22:16:41.561Z,20.27
2023-01-26T22:19:11.764Z,23.47
2023-01-26T22:21:39.360Z,24.13
2023-01-26T22:24:09.944Z,24.80
2023-01-26T22:26:38.961Z,21.17
2023-01-26T22:29:06.620Z,22.33
2023-01-26T22:31:34.346Z,22.40
2023-01-26T22:34:02.024Z,23.40
2023-01-26T22:36:29.781Z,24.10
2023-01-26T22:38:57.287Z,22.60
2023-01-26T22:41:29.379Z,21.37
2023-01-26T22:43:58.062Z,25.93
2023-01-26T22:46:27.125Z,25.37
2023-01-26T22:48:55.180Z,22.87
2023-01-26T22:51:23.464Z,22.90
2023-01-26T22:53:51.655Z,23.43
2023-01-26T22:56:19.793Z,24.70
2023-01-26T22:58:58.983Z,20.43
2023-01-26T23:01:28.495Z,25.03
2023-01-26T23:03:56.638Z,22.23
2023-01-26T23:06:24.502Z,23.53
2023-01-26T23:08:52.131Z,25.07
2023-01-26T23:11:20.886Z,23.00
2023-01-26T23:13:49.031Z,24.63
2023-01-26T23:16:16.606Z,22.07
2023-01-26T23:18:44.108Z,25.43
2023-01-26T23:21:11.867Z,24.43
2023-01-26T23:23:40.659Z,21.90
2023-01-26T23:26:08.654Z,28.37
2023-01-26T23:28:37.481Z,26.20
2023-01-26T23:31:05.021Z,23.87
2023-01-26T23:33:33.553Z,23.80
2023-01-26T23:36:01.047Z,24.63
2023-01-26T23:38:29.123Z,23.00
2023-01-26T23:40:56.979Z,23.77
2023-01-26T23:43:24.481Z,29.40
2023-01-26T23:45:51.955Z,25.17
2023-01-26T23:48:19.586Z,27.60
2023-01-26T23:50:47.005Z,26.47
2023-01-26T23:53:14.579Z,24.07
2023-01-26T23:55:42.532Z,25.33
2023-01-26T23:58:10.148Z,23.73
